»·PEaware :: N707CP KPSP-KLAS

N707CP :: KPSP-KLAS

FLIGHT INFORMATION

Flight Status: Arrived
Operator: Privately registered:
United States
More flights under this callsign
Pilot: Chase W. (8260)
Aircraft: MITSUBISHI MU-2 MARQUISE
(MU2)
More flights by this aircraft type
Origin: KPSP Palm Springs Intl
United States
Destination: KLAS McCarran Intl
United States
More flights between these airports :: More routes between these airports
Route: +CATH1 PSP V370 TNP V514 GFS LAS
File this flight plan on PilotEdge
Remarks:
Altitude:
(Current/Filed)
21,000ft
Speed:
(Current/Filed)
275kts
Departed: 27-Dec-17 05:44 PM
Arrived: 27-Dec-17 06:27 PM
Distance/Time
Traveled:
151nm/0:43
Distance/Time
To Go:
Arrived

Flight Plot

Page will automatically refresh every two minutes.

Flight plan parsing failed; only flown route is shown


Map Options




Map Legend


Flown Route
Filed Route
Departure Airport
Arrival Airport
Navaid (VOR, NDB)
Fix

Horizontal Profiles

Position Reports

Time Latitude Longitude Heading Altitude Ground
Speed
27-Dec-17 17:34 33.827122 -116.500345 324 481ft 0kts
27-Dec-17 17:35 33.827122 -116.500345 324 481ft 0kts
27-Dec-17 17:36 33.827123 -116.500346 323 481ft 0kts
27-Dec-17 17:37 33.827123 -116.500346 324 481ft 0kts
27-Dec-17 17:38 33.827123 -116.500346 324 481ft 0kts
27-Dec-17 17:39 33.827123 -116.500346 324 481ft 0kts
27-Dec-17 17:40 33.827123 -116.500346 324 481ft 0kts
27-Dec-17 17:41 33.827123 -116.500346 324 481ft 0kts
27-Dec-17 17:42 33.827123 -116.500346 324 481ft 0kts
27-Dec-17 17:43 33.827123 -116.500346 324 481ft 0kts
27-Dec-17 17:44 33.827123 -116.500346 324 481ft 0kts
27-Dec-17 17:45 33.827129 -116.500351 324 481ft 1kts
27-Dec-17 17:46 33.826994 -116.500968 233 481ft 0kts
27-Dec-17 17:47 33.825997 -116.500547 143 481ft 18kts
27-Dec-17 17:48 33.819974 -116.495893 231 481ft 14kts
27-Dec-17 17:49 33.819046 -116.497397 238 481ft 9kts
27-Dec-17 17:50 33.840343 -116.517771 319 939ft 184kts
27-Dec-17 17:51 33.876740 -116.552946 321 4185ft 168kts
27-Dec-17 17:52 33.911091 -116.547168 92 7009ft 177kts
27-Dec-17 17:53 33.901239 -116.491132 70 9795ft 184kts
27-Dec-17 17:54 33.918561 -116.434308 70 12478ft 192kts
27-Dec-17 17:55 33.937885 -116.370047 69 13004ft 258kts
27-Dec-17 17:56 33.961570 -116.291513 72 13020ft 253kts
27-Dec-17 17:57 33.984267 -116.211163 71 15119ft 255kts
27-Dec-17 17:58 34.007535 -116.130953 71 17297ft 257kts
27-Dec-17 17:59 34.031186 -116.049595 70 19482ft 260kts
27-Dec-17 18:00 34.055298 -115.966579 69 21247ft 281kts
27-Dec-17 18:01 34.084589 -115.867824 69 21286ft 332kts
27-Dec-17 18:02 34.119722 -115.763989 43 21263ft 343kts
27-Dec-17 18:03 34.189426 -115.685287 40 21280ft 347kts
27-Dec-17 18:04 34.259951 -115.605950 40 21278ft 347kts
27-Dec-17 18:05 34.331516 -115.527924 23 21239ft 344kts
27-Dec-17 18:06 34.420767 -115.489912 16 21278ft 342kts
27-Dec-17 18:07 34.509530 -115.451251 17 21278ft 342kts
27-Dec-17 18:08 34.598996 -115.411985 16 21263ft 342kts
27-Dec-17 18:09 34.688525 -115.372865 17 21228ft 342kts
27-Dec-17 18:10 34.776512 -115.334283 17 21211ft 342kts
27-Dec-17 18:11 34.865479 -115.295325 17 21211ft 341kts
27-Dec-17 18:12 34.954287 -115.256432 15 20935ft 328kts
27-Dec-17 18:13 35.041137 -115.218688 16 18854ft 334kts
27-Dec-17 18:14 35.125086 -115.181960 17 17104ft 322kts
27-Dec-17 18:15 35.209106 -115.177534 358 15296ft 297kts
27-Dec-17 18:16 35.290061 -115.176032 359 13503ft 287kts
27-Dec-17 18:17 35.368940 -115.174711 359 11716ft 281kts
27-Dec-17 18:18 35.445739 -115.173512 359 10064ft 269kts
27-Dec-17 18:19 35.518133 -115.171414 0 10022ft 255kts
27-Dec-17 18:20 35.586603 -115.170163 0 9146ft 242kts
27-Dec-17 18:21 35.652835 -115.168129 359 8223ft 236kts
27-Dec-17 18:22 35.717837 -115.166990 359 7300ft 232kts
27-Dec-17 18:23 35.779641 -115.165486 0 7034ft 220kts
27-Dec-17 18:24 35.842763 -115.164632 359 7033ft 235kts
27-Dec-17 18:25 35.905304 -115.143553 19 7029ft 239kts
27-Dec-17 18:26 35.962820 -115.116764 20 7008ft 205kts
27-Dec-17 18:27 36.007547 -115.092811 22 7003ft 157kts
27-Dec-17 18:28 36.044563 -115.072818 19 6208ft 147kts
27-Dec-17 18:29 36.081099 -115.055353 19 5290ft 145kts
27-Dec-17 18:30 36.110182 -115.079025 300 4307ft 142kts
27-Dec-17 18:31 36.125697 -115.118355 287 3340ft 124kts
27-Dec-17 18:32 36.114491 -115.148634 195 2608ft 117kts
27-Dec-17 18:33 36.089442 -115.162314 208 2145ft 10kts
27-Dec-17 18:34 36.089330 -115.163299 298 2145ft 0kts
27-Dec-17 18:35 36.089332 -115.163303 295 2145ft 0kts
27-Dec-17 18:36 36.089749 -115.164425 313 2145ft 1kts
27-Dec-17 18:37 36.092866 -115.163696 16 2145ft 8kts

Navigation Log

Ident Type
Flight plan parsing failed, navigation log unavailable